createdAt,value
2022-10-13T00:00:12.992Z,13.50
2022-10-13T00:03:55.001Z,13.50
2022-10-13T00:07:36.698Z,13.40
2022-10-13T00:11:21.437Z,13.40
2022-10-13T00:15:05.357Z,13.40
2022-10-13T00:18:47.950Z,13.40
2022-10-13T00:22:30.081Z,13.40
2022-10-13T00:26:15.990Z,13.50
2022-10-13T00:29:57.888Z,13.50
2022-10-13T00:33:39.584Z,13.40
2022-10-13T00:37:21.355Z,13.40
2022-10-13T00:41:03.458Z,13.50
2022-10-13T00:45:02.340Z,13.50
2022-10-13T00:48:47.362Z,13.50
2022-10-13T00:52:31.840Z,13.50
2022-10-13T00:56:15.129Z,13.50
2022-10-13T00:59:57.633Z,13.40
2022-10-13T01:03:39.349Z,13.40
2022-10-13T01:07:21.221Z,13.40
2022-10-13T01:11:11.874Z,13.40
2022-10-13T01:15:18.830Z,13.30
2022-10-13T01:19:24.729Z,13.30
2022-10-13T01:23:44.293Z,13.30
2022-10-13T01:27:51.879Z,13.30
2022-10-13T01:31:59.881Z,13.30
2022-10-13T01:35:47.737Z,13.20
2022-10-13T01:39:45.021Z,13.20
2022-10-13T01:43:37.525Z,13.20
2022-10-13T01:47:20.861Z,13.10
2022-10-13T01:51:02.953Z,13.10
2022-10-13T01:54:49.836Z,13.00
2022-10-13T01:58:34.729Z,13.00
2022-10-13T02:02:26.176Z,13.00
2022-10-13T02:06:22.746Z,13.00
2022-10-13T02:10:23.163Z,13.00
2022-10-13T02:14:15.979Z,12.90
2022-10-13T02:17:58.373Z,12.90
2022-10-13T02:21:41.297Z,12.90
2022-10-13T02:25:24.129Z,12.90
2022-10-13T02:29:15.056Z,12.90
2022-10-13T02:32:57.149Z,12.70
2022-10-13T02:36:39.826Z,12.70
2022-10-13T02:40:21.566Z,12.50
2022-10-13T02:44:03.850Z,12.40
2022-10-13T02:47:46.111Z,12.30
2022-10-13T02:51:27.817Z,12.10
2022-10-13T02:55:09.838Z,12.00
2022-10-13T02:58:51.799Z,11.80
2022-10-13T03:02:33.737Z,11.80
2022-10-13T03:06:15.586Z,11.70
2022-10-13T03:09:57.318Z,11.50
2022-10-13T03:13:39.081Z,11.50
2022-10-13T03:17:20.834Z,11.40
2022-10-13T03:21:05.710Z,11.40
2022-10-13T03:24:47.549Z,11.40
2022-10-13T03:28:29.441Z,11.30
2022-10-13T03:32:11.652Z,11.30
2022-10-13T03:35:53.533Z,11.30
2022-10-13T03:39:35.245Z,11.30
2022-10-13T03:43:16.934Z,11.20
2022-10-13T03:46:58.631Z,11.20
2022-10-13T03:50:40.350Z,11.10
2022-10-13T03:54:22.510Z,11.00
2022-10-13T03:58:04.198Z,10.90
2022-10-13T04:01:45.903Z,10.80
2022-10-13T04:05:27.608Z,10.70
2022-10-13T04:09:09.577Z,10.60
2022-10-13T04:12:51.318Z,10.50
2022-10-13T04:16:32.993Z,10.50
2022-10-13T04:20:14.898Z,10.30
2022-10-13T04:23:58.558Z,10.30
2022-10-13T04:27:40.331Z,10.10
2022-10-13T04:31:22.925Z,10.00
2022-10-13T04:35:05.083Z,9.90
2022-10-13T04:38:47.607Z,9.90
2022-10-13T04:42:29.318Z,9.80
2022-10-13T04:46:14.788Z,9.90
2022-10-13T04:49:56.485Z,9.90
2022-10-13T04:53:38.759Z,10.00
2022-10-13T04:57:20.498Z,10.10
2022-10-13T05:01:03.893Z,10.20
2022-10-13T05:04:45.689Z,10.30
2022-10-13T05:08:27.435Z,10.20
2022-10-13T05:12:09.161Z,10.20
2022-10-13T05:15:50.944Z,10.20
2022-10-13T05:19:32.666Z,10.20
2022-10-13T05:23:15.736Z,10.20
2022-10-13T05:26:57.802Z,10.30
2022-10-13T05:30:39.849Z,10.30
2022-10-13T05:34:21.522Z,10.40
2022-10-13T05:38:03.246Z,10.40
2022-10-13T05:41:44.952Z,10.40
2022-10-13T05:45:29.766Z,10.40
2022-10-13T05:49:11.587Z,10.40
2022-10-13T05:52:53.336Z,10.30
2022-10-13T05:56:39.918Z,10.10
2022-10-13T06:00:21.731Z,10.00
2022-10-13T06:04:12.144Z,9.80
2022-10-13T06:07:55.903Z,9.70
2022-10-13T06:11:37.596Z,9.60
2022-10-13T06:15:19.297Z,9.60
2022-10-13T06:19:01.081Z,9.50
2022-10-13T06:22:42.771Z,9.50
2022-10-13T06:26:24.495Z,9.50
2022-10-13T06:30:06.826Z,9.40
2022-10-13T06:33:48.961Z,9.40
2022-10-13T06:37:30.735Z,9.30
2022-10-13T06:41:14.259Z,9.40
2022-10-13T06:44:55.929Z,9.30
2022-10-13T06:48:38.239Z,9.40
2022-10-13T06:52:20.525Z,9.50
2022-10-13T06:56:05.657Z,9.60
2022-10-13T06:59:47.345Z,9.80
2022-10-13T07:03:29.075Z,10.00
2022-10-13T07:07:11.106Z,10.20
2022-10-13T07:10:52.867Z,10.40
2022-10-13T07:14:34.713Z,10.60
2022-10-13T07:18:16.462Z,10.90
2022-10-13T07:21:58.169Z,11.00
2022-10-13T07:25:40.655Z,11.30
2022-10-13T07:29:22.401Z,11.40
2022-10-13T07:33:04.202Z,11.60
2022-10-13T07:36:46.124Z,11.80
2022-10-13T07:40:27.872Z,12.00
2022-10-13T07:44:09.692Z,12.20
2022-10-13T07:47:51.389Z,12.30
2022-10-13T07:51:33.433Z,12.40
2022-10-13T07:55:15.241Z,12.60
2022-10-13T07:58:57.663Z,12.60
2022-10-13T08:02:39.510Z,12.60
2022-10-13T08:06:21.361Z,12.70
2022-10-13T08:10:04.028Z,12.70
2022-10-13T08:13:52.368Z,12.70
2022-10-13T08:17:34.314Z,12.70
2022-10-13T08:25:19.620Z,12.90
2022-10-13T08:33:03.409Z,13.20
2022-10-13T08:36:45.306Z,13.30
2022-10-13T08:40:27.121Z,13.50
2022-10-13T08:48:31.884Z,13.80
2022-10-13T08:52:26.084Z,13.90
2022-10-13T08:56:17.405Z,14.00
2022-10-13T08:59:59.219Z,14.10
2022-10-13T09:03:56.276Z,14.20
2022-10-13T09:07:39.931Z,14.30
2022-10-13T09:11:21.732Z,14.40
2022-10-13T09:15:11.988Z,14.40
2022-10-13T09:18:53.711Z,14.40
2022-10-13T09:22:37.615Z,14.50
2022-10-13T09:26:25.060Z,14.50
2022-10-13T09:30:29.378Z,14.50
2022-10-13T09:34:15.714Z,14.50
2022-10-13T09:38:13.194Z,14.60
2022-10-13T09:42:25.754Z,14.70
2022-10-13T09:46:23.011Z,14.90
2022-10-13T09:50:29.053Z,15.20
2022-10-13T09:54:48.621Z,15.30
2022-10-13T09:58:34.188Z,15.60
2022-10-13T10:02:35.506Z,15.80
2022-10-13T10:06:19.043Z,15.90
2022-10-13T10:10:09.042Z,16.00
2022-10-13T10:13:52.641Z,16.00
2022-10-13T10:17:48.296Z,16.00
2022-10-13T10:21:38.429Z,16.10
2022-10-13T10:25:49.270Z,16.30
2022-10-13T10:29:50.595Z,16.50
2022-10-13T10:34:04.142Z,16.90
2022-10-13T10:37:59.565Z,17.20
2022-10-13T10:42:05.386Z,17.40
2022-10-13T10:45:48.190Z,17.50
2022-10-13T10:49:36.611Z,17.70
2022-10-13T10:53:40.857Z,18.00
2022-10-13T10:57:31.752Z,18.30
2022-10-13T11:01:25.432Z,18.40
2022-10-13T11:05:07.445Z,18.30
2022-10-13T11:08:50.218Z,18.20
2022-10-13T11:12:47.185Z,18.30
2022-10-13T11:16:36.441Z,18.50
2022-10-13T11:24:33.865Z,21.40
2022-10-13T11:28:22.005Z,21.70
2022-10-13T11:32:04.736Z,21.50
2022-10-13T11:35:46.426Z,21.00
2022-10-13T11:39:39.103Z,21.10
2022-10-13T11:43:29.852Z,21.70
2022-10-13T11:47:35.160Z,23.10
2022-10-13T11:51:41.564Z,24.30
2022-10-13T11:55:49.163Z,25.20
2022-10-13T11:59:40.023Z,26.10
2022-10-13T12:03:37.632Z,26.40
2022-10-13T12:07:22.299Z,26.10
2022-10-13T12:11:07.584Z,25.70
2022-10-13T12:14:52.054Z,25.30
2022-10-13T12:18:38.991Z,24.90
2022-10-13T12:22:21.454Z,24.60
2022-10-13T12:26:04.307Z,24.30
2022-10-13T12:29:46.475Z,23.90
2022-10-13T12:33:39.073Z,24.30
2022-10-13T12:37:33.629Z,25.30
2022-10-13T12:41:22.922Z,26.20
2022-10-13T12:45:05.428Z,27.30
2022-10-13T12:48:48.340Z,28.30
2022-10-13T12:52:30.416Z,29.50
2022-10-13T12:56:28.887Z,30.70
2022-10-13T13:00:20.408Z,31.60
2022-10-13T13:04:18.936Z,32.50
2022-10-13T13:08:01.735Z,33.40
2022-10-13T13:11:43.605Z,34.00
2022-10-13T13:15:25.280Z,34.60
2022-10-13T13:19:22.720Z,34.70
2022-10-13T13:23:05.613Z,34.30
2022-10-13T13:26:47.457Z,33.40
2022-10-13T13:30:29.164Z,32.70
2022-10-13T13:34:10.979Z,32.90
2022-10-13T13:37:53.440Z,33.60
2022-10-13T13:41:35.226Z,34.40
2022-10-13T13:45:19.205Z,35.10
2022-10-13T13:49:02.155Z,35.80
2022-10-13T13:52:43.909Z,36.50
2022-10-13T13:56:25.664Z,36.90
2022-10-13T14:00:07.830Z,37.40
2022-10-13T14:03:49.691Z,37.70
2022-10-13T14:07:31.723Z,37.50
2022-10-13T14:11:13.697Z,36.20
2022-10-13T14:14:55.649Z,35.30
2022-10-13T14:18:37.348Z,35.00
2022-10-13T14:22:19.267Z,34.20
2022-10-13T14:26:06.782Z,33.60
2022-10-13T14:29:48.544Z,33.60
2022-10-13T14:33:30.284Z,33.10
2022-10-13T14:37:11.968Z,31.60
2022-10-13T14:40:57.891Z,30.00
2022-10-13T14:44:39.581Z,28.60
2022-10-13T14:48:24.809Z,27.40
2022-10-13T14:52:07.606Z,26.80
2022-10-13T14:55:49.394Z,26.80
2022-10-13T14:59:31.705Z,27.10
2022-10-13T15:03:13.554Z,26.90
2022-10-13T15:06:55.392Z,26.60
2022-10-13T15:10:37.235Z,26.40
2022-10-13T15:14:18.918Z,26.10
2022-10-13T15:18:01.091Z,25.70
2022-10-13T15:21:42.922Z,25.30
2022-10-13T15:25:24.671Z,24.80
2022-10-13T15:29:06.422Z,24.30
2022-10-13T15:32:50.450Z,23.90
2022-10-13T15:36:32.190Z,23.60
2022-10-13T15:40:14.001Z,23.30
2022-10-13T15:43:55.797Z,23.00
2022-10-13T15:47:37.923Z,22.70
2022-10-13T15:51:23.980Z,22.40
2022-10-13T15:55:06.796Z,22.10
2022-10-13T15:58:48.501Z,21.80
2022-10-13T16:02:30.317Z,21.50
2022-10-13T16:06:14.364Z,21.10
2022-10-13T16:09:56.091Z,20.70
2022-10-13T16:13:38.775Z,20.40
2022-10-13T16:17:20.912Z,20.00
2022-10-13T16:21:15.793Z,19.70
2022-10-13T16:25:00.004Z,19.50
2022-10-13T16:28:41.927Z,19.20
2022-10-13T16:32:23.871Z,19.00
2022-10-13T16:36:07.595Z,18.70
2022-10-13T16:39:51.943Z,18.40
2022-10-13T16:43:34.758Z,18.10
2022-10-13T16:47:18.695Z,17.80
2022-10-13T16:51:08.866Z,17.50
2022-10-13T16:54:50.629Z,17.20
2022-10-13T16:58:32.587Z,16.90
2022-10-13T17:02:15.510Z,16.60
2022-10-13T17:05:57.226Z,16.40
2022-10-13T17:09:39.166Z,16.20
2022-10-13T17:13:20.861Z,16.00
2022-10-13T17:17:02.575Z,15.80
2022-10-13T17:20:53.918Z,15.50
2022-10-13T17:24:35.613Z,15.40
2022-10-13T17:28:18.306Z,15.20
2022-10-13T17:32:01.416Z,15.00
2022-10-13T17:35:43.176Z,14.90
2022-10-13T17:39:26.013Z,14.70
2022-10-13T17:43:08.648Z,14.60
2022-10-13T17:46:50.559Z,14.50
2022-10-13T17:50:35.450Z,14.40
2022-10-13T17:54:19.272Z,14.30
2022-10-13T17:58:01.284Z,14.20
2022-10-13T18:01:44.220Z,14.20
2022-10-13T18:05:26.025Z,14.10
2022-10-13T18:09:13.785Z,14.00
2022-10-13T18:12:55.453Z,13.90
2022-10-13T18:16:37.509Z,13.80
2022-10-13T18:20:19.279Z,13.70
2022-10-13T18:24:02.281Z,13.70
2022-10-13T18:27:44.125Z,13.60
2022-10-13T18:31:31.390Z,13.60
2022-10-13T18:35:13.144Z,13.50
2022-10-13T18:39:00.092Z,13.40
2022-10-13T18:42:46.552Z,13.40
2022-10-13T18:46:29.593Z,13.40
2022-10-13T18:50:11.493Z,13.30
2022-10-13T18:53:53.266Z,13.30
2022-10-13T18:57:35.793Z,13.20
2022-10-13T19:01:20.606Z,13.20
2022-10-13T19:05:02.473Z,13.10
2022-10-13T19:08:45.250Z,13.10
2022-10-13T19:12:26.930Z,13.00
2022-10-13T19:16:09.443Z,13.00
2022-10-13T19:19:51.211Z,13.00
2022-10-13T19:23:33.020Z,13.00
2022-10-13T19:27:14.957Z,13.00
2022-10-13T19:30:56.702Z,13.00
2022-10-13T19:34:38.452Z,13.00
2022-10-13T19:38:20.247Z,13.00
2022-10-13T19:42:02.707Z,13.00
2022-10-13T19:45:57.383Z,13.00
2022-10-13T19:49:42.066Z,13.10
2022-10-13T19:53:24.499Z,13.00
2022-10-13T19:57:06.281Z,13.00
2022-10-13T20:00:49.795Z,13.00
2022-10-13T20:04:31.629Z,13.00
2022-10-13T20:08:13.822Z,13.00
2022-10-13T20:11:55.772Z,12.90
2022-10-13T20:15:43.201Z,12.90
2022-10-13T20:19:25.056Z,12.80
2022-10-13T20:23:07.397Z,12.90
2022-10-13T20:26:50.141Z,12.90
2022-10-13T20:30:32.829Z,12.80
2022-10-13T20:34:14.622Z,12.80
2022-10-13T20:37:56.357Z,12.70
2022-10-13T20:41:38.061Z,12.70
2022-10-13T20:45:20.115Z,12.60
2022-10-13T20:49:17.366Z,12.50
2022-10-13T20:52:59.097Z,12.50
2022-10-13T20:56:41.465Z,12.40
2022-10-13T21:00:23.170Z,12.30
2022-10-13T21:04:05.266Z,12.30
2022-10-13T21:07:47.189Z,12.30
2022-10-13T21:11:28.987Z,12.30
2022-10-13T21:15:10.964Z,12.30
2022-10-13T21:18:54.056Z,12.30
2022-10-13T21:22:35.737Z,12.40
2022-10-13T21:26:21.634Z,12.40
2022-10-13T21:30:05.233Z,12.40
2022-10-13T21:33:47.270Z,12.40
2022-10-13T21:37:28.960Z,12.50
2022-10-13T21:41:12.773Z,12.50
2022-10-13T21:44:54.484Z,12.50
2022-10-13T21:48:36.728Z,12.50
2022-10-13T21:52:18.526Z,12.60
2022-10-13T21:56:06.897Z,12.60
2022-10-13T21:59:48.735Z,12.60
2022-10-13T22:03:31.101Z,12.60
2022-10-13T22:07:12.794Z,12.70
2022-10-13T22:10:57.334Z,12.60
2022-10-13T22:14:39.112Z,12.60
2022-10-13T22:18:20.813Z,12.50
2022-10-13T22:22:02.644Z,12.50
2022-10-13T22:25:45.768Z,12.40
2022-10-13T22:29:27.582Z,12.30
2022-10-13T22:33:09.266Z,12.20
2022-10-13T22:36:51.408Z,12.10
2022-10-13T22:40:33.094Z,12.10
2022-10-13T22:44:14.988Z,12.00
2022-10-13T22:47:56.722Z,12.00
2022-10-13T22:51:38.430Z,12.00
2022-10-13T22:55:20.123Z,12.10
2022-10-13T22:59:07.337Z,12.20
2022-10-13T23:02:49.050Z,12.20
2022-10-13T23:06:32.546Z,12.30
2022-10-13T23:10:14.282Z,12.30
2022-10-13T23:13:56.042Z,12.40
2022-10-13T23:17:37.802Z,12.50
2022-10-13T23:21:21.143Z,12.50
2022-10-13T23:25:02.855Z,12.50
2022-10-13T23:28:45.053Z,12.60
2022-10-13T23:32:26.779Z,12.60
2022-10-13T23:36:10.892Z,12.60
2022-10-13T23:39:52.590Z,12.70
2022-10-13T23:43:34.596Z,12.70
2022-10-13T23:47:16.395Z,12.70
2022-10-13T23:50:58.359Z,12.70
2022-10-13T23:54:40.069Z,12.70
2022-10-13T23:58:21.745Z,12.80
